sensor_id;sensor_type;location;lat;lon;timestamp;P1;durP1;ratioP1;P2;durP2;ratioP2
3831;SDS011;12460;42.662;23.288;2023-07-13T03:51:34;10.50;;;9.33;;
3831;SDS011;12460;42.662;23.288;2023-07-13T04:06:40;11.13;;;9.93;;
3831;SDS011;12460;42.662;23.288;2023-07-13T04:21:47;12.00;;;10.80;;
3831;SDS011;12460;42.662;23.288;2023-07-13T04:36:51;10.70;;;9.60;;
3831;SDS011;12460;42.662;23.288;2023-07-13T04:51:56;13.03;;;11.90;;
3831;SDS011;12460;42.662;23.288;2023-07-13T05:07:01;11.77;;;10.77;;
3831;SDS011;12460;42.662;23.288;2023-07-13T05:22:06;12.03;;;11.03;;
3831;SDS011;12460;42.662;23.288;2023-07-13T05:37:12;14.40;;;12.97;;
3831;SDS011;12460;42.662;23.288;2023-07-13T05:52:17;14.30;;;13.10;;
3831;SDS011;12460;42.662;23.288;2023-07-13T06:07:22;15.23;;;13.73;;
3831;SDS011;12460;42.662;23.288;2023-07-13T06:22:26;12.50;;;11.50;;
3831;SDS011;12460;42.662;23.288;2023-07-13T06:37:33;13.90;;;12.60;;
3831;SDS011;12460;42.662;23.288;2023-07-13T06:52:38;13.47;;;11.73;;
3831;SDS011;12460;42.662;23.288;2023-07-13T07:07:45;14.93;;;13.63;;
3831;SDS011;12460;42.662;23.288;2023-07-13T07:22:52;13.27;;;12.07;;
3831;SDS011;12460;42.662;23.288;2023-07-13T07:37:57;12.70;;;11.43;;
3831;SDS011;12460;42.662;23.288;2023-07-13T07:53:04;12.53;;;11.43;;
3831;SDS011;12460;42.662;23.288;2023-07-13T08:08:15;12.50;;;11.40;;
3831;SDS011;12460;42.662;23.288;2023-07-13T08:23:21;17.03;;;12.30;;
3831;SDS011;12460;42.662;23.288;2023-07-13T08:38:41;13.70;;;12.37;;
3831;SDS011;12460;42.662;23.288;2023-07-13T08:53:49;12.27;;;11.17;;
3831;SDS011;12460;42.662;23.288;2023-07-13T09:09:02;11.40;;;10.30;;
3831;SDS011;12460;42.662;23.288;2023-07-13T09:24:38;12.10;;;11.00;;
3831;SDS011;12460;42.662;23.288;2023-07-13T09:39:52;13.00;;;11.80;;
3831;SDS011;12460;42.662;23.288;2023-07-13T09:55:00;13.63;;;12.43;;
3831;SDS011;12460;42.662;23.288;2023-07-13T10:10:12;8.80;;;8.10;;
3831;SDS011;12460;42.662;23.288;2023-07-13T10:25:27;7.82;;;7.03;;
3831;SDS011;12460;42.662;23.288;2023-07-13T10:40:40;7.60;;;7.00;;
3831;SDS011;12460;42.662;23.288;2023-07-13T10:55:56;7.10;;;6.60;;
3831;SDS011;12460;42.662;23.288;2023-07-13T11:11:31;8.30;;;7.60;;
3831;SDS011;12460;42.662;23.288;2023-07-13T11:41:49;7.65;;;6.97;;
3831;SDS011;12460;42.662;23.288;2023-07-13T11:56:57;7.70;;;7.10;;
3831;SDS011;12460;42.662;23.288;2023-07-13T12:12:09;7.38;;;6.78;;
3831;SDS011;12460;42.662;23.288;2023-07-13T12:27:18;6.28;;;5.78;;
3831;SDS011;12460;42.662;23.288;2023-07-13T12:42:27;9.23;;;6.40;;
3831;SDS011;12460;42.662;23.288;2023-07-13T12:57:39;8.57;;;6.15;;
3831;SDS011;12460;42.662;23.288;2023-07-13T13:12:45;7.25;;;6.47;;
3831;SDS011;12460;42.662;23.288;2023-07-13T13:27:50;7.03;;;6.32;;
3831;SDS011;12460;42.662;23.288;2023-07-13T13:42:55;6.93;;;6.23;;
3831;SDS011;12460;42.662;23.288;2023-07-13T13:58:02;6.03;;;5.53;;
3831;SDS011;12460;42.662;23.288;2023-07-13T14:13:07;6.70;;;5.80;;
3831;SDS011;12460;42.662;23.288;2023-07-13T14:28:26;9.40;;;6.87;;
3831;SDS011;12460;42.662;23.288;2023-07-13T14:43:32;11.60;;;6.63;;
3831;SDS011;12460;42.662;23.288;2023-07-13T14:58:37;6.80;;;6.30;;
3831;SDS011;12460;42.662;23.288;2023-07-13T15:13:44;7.23;;;6.63;;
3831;SDS011;12460;42.662;23.288;2023-07-13T15:45:17;7.53;;;6.80;;
3831;SDS011;12460;42.662;23.288;2023-07-13T16:00:26;7.10;;;6.33;;
3831;SDS011;12460;42.662;23.288;2023-07-13T16:15:31;7.67;;;6.40;;
3831;SDS011;12460;42.662;23.288;2023-07-13T16:30:36;9.00;;;7.83;;
3831;SDS011;12460;42.662;23.288;2023-07-13T16:45:40;8.67;;;7.80;;
3831;SDS011;12460;42.662;23.288;2023-07-13T17:00:48;9.60;;;7.60;;
3831;SDS011;12460;42.662;23.288;2023-07-13T17:15:56;9.60;;;6.90;;
3831;SDS011;12460;42.662;23.288;2023-07-13T17:31:00;10.00;;;7.90;;
3831;SDS011;12460;42.662;23.288;2023-07-13T17:46:13;8.70;;;8.00;;
3831;SDS011;12460;42.662;23.288;2023-07-13T18:01:22;8.70;;;7.80;;
